sensor_id;sensor_type;location;lat;lon;timestamp;temperature;humidity
68189;DHT22;66299;47.514;19.218;2023-12-29T00:01:36;-0.74;99.99
68189;DHT22;66299;47.514;19.218;2023-12-29T00:04:05;-0.69;99.99
68189;DHT22;66299;47.514;19.218;2023-12-29T00:06:33;-0.62;99.99
68189;DHT22;66299;47.514;19.218;2023-12-29T00:09:14;-0.52;99.99
68189;DHT22;66299;47.514;19.218;2023-12-29T00:11:44;-0.56;99.99
68189;DHT22;66299;47.514;19.218;2023-12-29T00:14:15;-0.48;99.99
68189;DHT22;66299;47.514;19.218;2023-12-29T00:16:44;-0.42;99.99
68189;DHT22;66299;47.514;19.218;2023-12-29T00:19:12;-0.31;99.99
68189;DHT22;66299;47.514;19.218;2023-12-29T00:21:41;-0.51;99.99
68189;DHT22;66299;47.514;19.218;2023-12-29T00:24:11;-0.55;99.99
68189;DHT22;66299;47.514;19.218;2023-12-29T00:26:40;-0.52;99.99
68189;DHT22;66299;47.514;19.218;2023-12-29T00:29:09;-0.53;99.99
68189;DHT22;66299;47.514;19.218;2023-12-29T00:31:39;-0.51;99.99
68189;DHT22;66299;47.514;19.218;2023-12-29T00:34:08;-0.48;99.99
68189;DHT22;66299;47.514;19.218;2023-12-29T00:36:37;-0.45;99.99
68189;DHT22;66299;47.514;19.218;2023-12-29T00:39:06;-0.46;99.99
68189;DHT22;66299;47.514;19.218;2023-12-29T00:41:35;-0.44;99.99
68189;DHT22;66299;47.514;19.218;2023-12-29T00:44:04;-0.46;99.99
68189;DHT22;66299;47.514;19.218;2023-12-29T00:46:32;-0.58;99.99
68189;DHT22;66299;47.514;19.218;2023-12-29T00:49:02;-0.61;99.99
68189;DHT22;66299;47.514;19.218;2023-12-29T00:51:31;-0.65;99.99
68189;DHT22;66299;47.514;19.218;2023-12-29T00:54:00;-0.62;99.99
68189;DHT22;66299;47.514;19.218;2023-12-29T00:56:29;-0.66;99.99
68189;DHT22;66299;47.514;19.218;2023-12-29T00:58:58;-0.63;99.99
68189;DHT22;66299;47.514;19.218;2023-12-29T01:01:28;-0.52;99.99
68189;DHT22;66299;47.514;19.218;2023-12-29T01:03:57;-0.41;99.99
68189;DHT22;66299;47.514;19.218;2023-12-29T01:06:28;-0.39;99.99
68189;DHT22;66299;47.514;19.218;2023-12-29T01:08:57;-0.38;99.99
68189;DHT22;66299;47.514;19.218;2023-12-29T01:11:26;-0.46;99.99
68189;DHT22;66299;47.514;19.218;2023-12-29T01:13:55;-0.46;99.99
68189;DHT22;66299;47.514;19.218;2023-12-29T01:16:24;-0.45;99.99
68189;DHT22;66299;47.514;19.218;2023-12-29T01:18:52;-0.44;99.99
68189;DHT22;66299;47.514;19.218;2023-12-29T01:21:21;-0.53;99.99
68189;DHT22;66299;47.514;19.218;2023-12-29T01:23:51;-0.52;99.99
68189;DHT22;66299;47.514;19.218;2023-12-29T01:26:20;-0.49;99.99
68189;DHT22;66299;47.514;19.218;2023-12-29T01:28:48;-0.45;99.99
68189;DHT22;66299;47.514;19.218;2023-12-29T01:31:17;-0.42;99.99
68189;DHT22;66299;47.514;19.218;2023-12-29T01:33:46;-0.38;99.99
68189;DHT22;66299;47.514;19.218;2023-12-29T01:36:17;-0.36;99.99
68189;DHT22;66299;47.514;19.218;2023-12-29T01:38:52;-0.29;99.99
68189;DHT22;66299;47.514;19.218;2023-12-29T01:41:22;-0.36;99.99
68189;DHT22;66299;47.514;19.218;2023-12-29T01:44:19;-0.41;99.99
68189;DHT22;66299;47.514;19.218;2023-12-29T01:46:50;-0.48;99.99
68189;DHT22;66299;47.514;19.218;2023-12-29T01:49:20;-0.51;99.99
68189;DHT22;66299;47.514;19.218;2023-12-29T01:51:50;-0.46;99.99
68189;DHT22;66299;47.514;19.218;2023-12-29T01:54:21;-0.49;99.99
68189;DHT22;66299;47.514;19.218;2023-12-29T01:56:54;-0.48;99.99
68189;DHT22;66299;47.514;19.218;2023-12-29T01:59:25;-0.51;99.99
68189;DHT22;66299;47.514;19.218;2023-12-29T02:01:54;-0.48;99.99
68189;DHT22;66299;47.514;19.218;2023-12-29T02:04:24;-0.36;99.99
68189;DHT22;66299;47.514;19.218;2023-12-29T02:06:54;-0.29;99.99
68189;DHT22;66299;47.514;19.218;2023-12-29T02:09:24;-0.42;99.99
68189;DHT22;66299;47.514;19.218;2023-12-29T02:11:54;-0.52;99.99
68189;DHT22;66299;47.514;19.218;2023-12-29T02:14:22;-0.55;99.99
68189;DHT22;66299;47.514;19.218;2023-12-29T02:16:58;-0.38;99.99
68189;DHT22;66299;47.514;19.218;2023-12-29T02:19:37;-0.26;99.99
68189;DHT22;66299;47.514;19.218;2023-12-29T02:22:07;-0.35;99.99
68189;DHT22;66299;47.514;19.218;2023-12-29T02:24:39;-0.17;99.99
68189;DHT22;66299;47.514;19.218;2023-12-29T02:27:23;-0.11;99.99
68189;DHT22;66299;47.514;19.218;2023-12-29T02:30:02;-0.05;99.99
68189;DHT22;66299;47.514;19.218;2023-12-29T02:32:36;-0.07;99.99
68189;DHT22;66299;47.514;19.218;2023-12-29T02:35:06;0.02;99.99
68189;DHT22;66299;47.514;19.218;2023-12-29T02:37:36;0.06;99.99
68189;DHT22;66299;47.514;19.218;2023-12-29T02:40:07;0.09;99.99
68189;DHT22;66299;47.514;19.218;2023-12-29T02:42:37;0.10;99.99
68189;DHT22;66299;47.514;19.218;2023-12-29T02:45:07;0.14;99.99
68189;DHT22;66299;47.514;19.218;2023-12-29T02:47:37;0.21;99.99
68189;DHT22;66299;47.514;19.218;2023-12-29T02:50:06;0.26;99.99
68189;DHT22;66299;47.514;19.218;2023-12-29T02:52:35;0.31;99.99
68189;DHT22;66299;47.514;19.218;2023-12-29T02:55:04;0.37;99.99
68189;DHT22;66299;47.514;19.218;2023-12-29T02:57:33;0.40;99.99
68189;DHT22;66299;47.514;19.218;2023-12-29T03:00:04;0.37;99.99
68189;DHT22;66299;47.514;19.218;2023-12-29T03:02:33;0.61;99.99
68189;DHT22;66299;47.514;19.218;2023-12-29T03:05:02;0.61;99.99
68189;DHT22;66299;47.514;19.218;2023-12-29T03:07:31;0.65;99.99
68189;DHT22;66299;47.514;19.218;2023-12-29T03:10:00;0.57;99.99
68189;DHT22;66299;47.514;19.218;2023-12-29T03:12:29;0.55;99.99
68189;DHT22;66299;47.514;19.218;2023-12-29T03:14:58;0.53;99.99
68189;DHT22;66299;47.514;19.218;2023-12-29T03:17:28;0.54;99.99
68189;DHT22;66299;47.514;19.218;2023-12-29T03:19:58;0.41;99.99
68189;DHT22;66299;47.514;19.218;2023-12-29T03:22:28;0.36;99.99
68189;DHT22;66299;47.514;19.218;2023-12-29T03:24:57;0.27;99.99
68189;DHT22;66299;47.514;19.218;2023-12-29T03:27:26;0.24;99.99
68189;DHT22;66299;47.514;19.218;2023-12-29T03:29:54;0.33;99.99
68189;DHT22;66299;47.514;19.218;2023-12-29T03:32:24;0.38;99.99
68189;DHT22;66299;47.514;19.218;2023-12-29T03:34:54;0.43;99.99
68189;DHT22;66299;47.514;19.218;2023-12-29T03:37:23;0.45;99.99
68189;DHT22;66299;47.514;19.218;2023-12-29T03:39:51;0.50;99.99
68189;DHT22;66299;47.514;19.218;2023-12-29T03:42:19;0.50;99.99
68189;DHT22;66299;47.514;19.218;2023-12-29T03:44:48;0.60;99.99
68189;DHT22;66299;47.514;19.218;2023-12-29T03:47:17;0.68;99.99
68189;DHT22;66299;47.514;19.218;2023-12-29T03:49:46;0.66;99.99
68189;DHT22;66299;47.514;19.218;2023-12-29T03:52:16;0.66;99.99
68189;DHT22;66299;47.514;19.218;2023-12-29T03:54:45;0.72;99.99
68189;DHT22;66299;47.514;19.218;2023-12-29T03:57:13;0.76;99.99
68189;DHT22;66299;47.514;19.218;2023-12-29T03:59:42;0.81;99.99
68189;DHT22;66299;47.514;19.218;2023-12-29T04:02:11;0.81;99.99
68189;DHT22;66299;47.514;19.218;2023-12-29T04:04:40;0.82;99.99
68189;DHT22;66299;47.514;19.218;2023-12-29T04:07:09;0.79;99.99
68189;DHT22;66299;47.514;19.218;2023-12-29T04:09:38;0.83;99.99
68189;DHT22;66299;47.514;19.218;2023-12-29T04:12:08;0.78;99.99
68189;DHT22;66299;47.514;19.218;2023-12-29T04:14:37;0.79;99.99
68189;DHT22;66299;47.514;19.218;2023-12-29T04:17:07;0.85;99.99
68189;DHT22;66299;47.514;19.218;2023-12-29T04:19:41;0.85;99.99
68189;DHT22;66299;47.514;19.218;2023-12-29T04:22:10;0.88;99.99
68189;DHT22;66299;47.514;19.218;2023-12-29T04:24:41;0.83;99.99
68189;DHT22;66299;47.514;19.218;2023-12-29T04:27:10;0.88;99.99
68189;DHT22;66299;47.514;19.218;2023-12-29T04:29:39;0.88;99.99
68189;DHT22;66299;47.514;19.218;2023-12-29T04:32:10;0.88;99.99
68189;DHT22;66299;47.514;19.218;2023-12-29T04:34:40;0.92;99.99
68189;DHT22;66299;47.514;19.218;2023-12-29T04:37:08;0.95;99.99
68189;DHT22;66299;47.514;19.218;2023-12-29T04:39:37;0.88;99.99
68189;DHT22;66299;47.514;19.218;2023-12-29T04:42:07;0.88;99.99
68189;DHT22;66299;47.514;19.218;2023-12-29T04:44:36;0.88;99.99
68189;DHT22;66299;47.514;19.218;2023-12-29T04:47:05;0.86;99.99
68189;DHT22;66299;47.514;19.218;2023-12-29T04:49:34;0.86;99.99
68189;DHT22;66299;47.514;19.218;2023-12-29T04:52:03;0.91;99.99
68189;DHT22;66299;47.514;19.218;2023-12-29T04:54:33;0.89;99.99
68189;DHT22;66299;47.514;19.218;2023-12-29T04:57:02;0.86;99.99
68189;DHT22;66299;47.514;19.218;2023-12-29T04:59:32;0.91;99.99
68189;DHT22;66299;47.514;19.218;2023-12-29T05:02:01;0.86;99.99
68189;DHT22;66299;47.514;19.218;2023-12-29T05:04:30;0.83;99.99
68189;DHT22;66299;47.514;19.218;2023-12-29T05:06:58;0.82;99.99
68189;DHT22;66299;47.514;19.218;2023-12-29T05:09:27;0.82;99.99
68189;DHT22;66299;47.514;19.218;2023-12-29T05:11:56;0.78;99.99
68189;DHT22;66299;47.514;19.218;2023-12-29T05:14:25;0.83;99.99
68189;DHT22;66299;47.514;19.218;2023-12-29T05:16:55;0.78;99.99
68189;DHT22;66299;47.514;19.218;2023-12-29T05:19:25;0.76;99.99
68189;DHT22;66299;47.514;19.218;2023-12-29T05:21:53;0.78;99.99
68189;DHT22;66299;47.514;19.218;2023-12-29T05:24:22;0.81;99.99
68189;DHT22;66299;47.514;19.218;2023-12-29T05:26:51;0.75;99.99
68189;DHT22;66299;47.514;19.218;2023-12-29T05:29:20;0.75;99.99
68189;DHT22;66299;47.514;19.218;2023-12-29T05:31:48;0.74;99.99
68189;DHT22;66299;47.514;19.218;2023-12-29T05:34:19;0.69;99.99
68189;DHT22;66299;47.514;19.218;2023-12-29T05:36:48;0.72;99.99
68189;DHT22;66299;47.514;19.218;2023-12-29T05:39:17;0.68;99.99
68189;DHT22;66299;47.514;19.218;2023-12-29T05:41:46;0.61;99.99
68189;DHT22;66299;47.514;19.218;2023-12-29T05:44:15;0.68;99.99
68189;DHT22;66299;47.514;19.218;2023-12-29T05:46:46;0.69;99.99
68189;DHT22;66299;47.514;19.218;2023-12-29T05:49:15;0.71;99.99
68189;DHT22;66299;47.514;19.218;2023-12-29T05:51:47;0.69;99.99
68189;DHT22;66299;47.514;19.218;2023-12-29T05:54:17;0.75;99.99
68189;DHT22;66299;47.514;19.218;2023-12-29T05:56:46;0.69;99.99
68189;DHT22;66299;47.514;19.218;2023-12-29T05:59:14;0.64;99.99
68189;DHT22;66299;47.514;19.218;2023-12-29T06:01:43;0.68;99.99
68189;DHT22;66299;47.514;19.218;2023-12-29T06:04:12;0.65;99.99
68189;DHT22;66299;47.514;19.218;2023-12-29T06:06:41;0.60;99.99
68189;DHT22;66299;47.514;19.218;2023-12-29T06:09:12;0.62;99.99
68189;DHT22;66299;47.514;19.218;2023-12-29T06:11:40;0.64;99.99
68189;DHT22;66299;47.514;19.218;2023-12-29T06:14:08;0.65;99.99
68189;DHT22;66299;47.514;19.218;2023-12-29T06:16:37;0.61;99.99
68189;DHT22;66299;47.514;19.218;2023-12-29T06:19:05;0.48;99.99
68189;DHT22;66299;47.514;19.218;2023-12-29T06:21:40;0.37;99.99
68189;DHT22;66299;47.514;19.218;2023-12-29T06:24:09;0.23;99.99
68189;DHT22;66299;47.514;19.218;2023-12-29T06:26:39;0.20;99.99
68189;DHT22;66299;47.514;19.218;2023-12-29T06:29:10;0.36;99.99
68189;DHT22;66299;47.514;19.218;2023-12-29T06:31:40;0.33;99.99
68189;DHT22;66299;47.514;19.218;2023-12-29T06:34:10;0.24;99.99
68189;DHT22;66299;47.514;19.218;2023-12-29T06:36:40;0.33;99.99
68189;DHT22;66299;47.514;19.218;2023-12-29T06:39:09;0.28;99.99
68189;DHT22;66299;47.514;19.218;2023-12-29T06:41:39;0.30;99.99
68189;DHT22;66299;47.514;19.218;2023-12-29T06:44:08;0.30;99.99
68189;DHT22;66299;47.514;19.218;2023-12-29T06:46:38;0.28;99.99
68189;DHT22;66299;47.514;19.218;2023-12-29T06:49:08;0.30;99.99
68189;DHT22;66299;47.514;19.218;2023-12-29T06:51:37;0.44;99.99
68189;DHT22;66299;47.514;19.218;2023-12-29T06:54:08;0.54;99.99
68189;DHT22;66299;47.514;19.218;2023-12-29T06:56:39;0.53;99.99
68189;DHT22;66299;47.514;19.218;2023-12-29T06:59:07;0.51;99.99
68189;DHT22;66299;47.514;19.218;2023-12-29T07:01:38;0.53;99.99
68189;DHT22;66299;47.514;19.218;2023-12-29T07:04:08;0.50;99.99
68189;DHT22;66299;47.514;19.218;2023-12-29T07:06:38;0.55;99.99
68189;DHT22;66299;47.514;19.218;2023-12-29T07:09:08;0.53;99.99
68189;DHT22;66299;47.514;19.218;2023-12-29T07:11:36;0.55;99.99
68189;DHT22;66299;47.514;19.218;2023-12-29T07:14:06;0.57;99.99
68189;DHT22;66299;47.514;19.218;2023-12-29T07:16:35;0.57;99.99
68189;DHT22;66299;47.514;19.218;2023-12-29T07:19:04;0.60;99.99
68189;DHT22;66299;47.514;19.218;2023-12-29T07:21:33;0.60;99.99
68189;DHT22;66299;47.514;19.218;2023-12-29T07:24:02;0.47;99.99
68189;DHT22;66299;47.514;19.218;2023-12-29T07:26:32;0.51;99.99
68189;DHT22;66299;47.514;19.218;2023-12-29T07:29:02;0.24;99.99
68189;DHT22;66299;47.514;19.218;2023-12-29T07:31:32;0.30;99.99
68189;DHT22;66299;47.514;19.218;2023-12-29T07:34:02;0.34;99.99
68189;DHT22;66299;47.514;19.218;2023-12-29T07:36:31;0.34;99.99
68189;DHT22;66299;47.514;19.218;2023-12-29T07:38:59;0.23;99.99
68189;DHT22;66299;47.514;19.218;2023-12-29T07:41:28;0.47;99.99
68189;DHT22;66299;47.514;19.218;2023-12-29T07:43:58;0.34;99.99
68189;DHT22;66299;47.514;19.218;2023-12-29T07:46:27;0.48;99.99
68189;DHT22;66299;47.514;19.218;2023-12-29T07:48:58;0.64;99.99
68189;DHT22;66299;47.514;19.218;2023-12-29T07:51:27;0.74;99.99
68189;DHT22;66299;47.514;19.218;2023-12-29T07:53:55;0.82;99.99
68189;DHT22;66299;47.514;19.218;2023-12-29T07:56:24;0.85;99.99
68189;DHT22;66299;47.514;19.218;2023-12-29T07:58:52;0.86;99.99
68189;DHT22;66299;47.514;19.218;2023-12-29T08:01:21;0.78;99.99
68189;DHT22;66299;47.514;19.218;2023-12-29T08:03:50;0.64;99.99
68189;DHT22;66299;47.514;19.218;2023-12-29T08:06:20;0.74;99.99
68189;DHT22;66299;47.514;19.218;2023-12-29T08:08:50;0.88;99.99
68189;DHT22;66299;47.514;19.218;2023-12-29T08:11:19;0.82;99.99
68189;DHT22;66299;47.514;19.218;2023-12-29T08:13:48;0.85;99.99
68189;DHT22;66299;47.514;19.218;2023-12-29T08:16:17;0.86;99.99
68189;DHT22;66299;47.514;19.218;2023-12-29T08:18:46;0.96;99.99
68189;DHT22;66299;47.514;19.218;2023-12-29T08:21:20;0.76;99.99
68189;DHT22;66299;47.514;19.218;2023-12-29T08:23:49;0.83;99.99
68189;DHT22;66299;47.514;19.218;2023-12-29T08:26:18;1.07;99.99
68189;DHT22;66299;47.514;19.218;2023-12-29T08:28:47;1.19;99.99
68189;DHT22;66299;47.514;19.218;2023-12-29T08:31:18;0.92;99.99
68189;DHT22;66299;47.514;19.218;2023-12-29T08:33:48;1.03;99.99
68189;DHT22;66299;47.514;19.218;2023-12-29T08:36:20;1.17;99.99
68189;DHT22;66299;47.514;19.218;2023-12-29T08:38:49;1.34;99.99
68189;DHT22;66299;47.514;19.218;2023-12-29T08:41:19;1.47;99.99
68189;DHT22;66299;47.514;19.218;2023-12-29T08:43:48;1.60;99.99
68189;DHT22;66299;47.514;19.218;2023-12-29T08:46:17;1.70;99.99
68189;DHT22;66299;47.514;19.218;2023-12-29T08:48:46;1.68;99.99
68189;DHT22;66299;47.514;19.218;2023-12-29T08:51:15;1.86;99.99
68189;DHT22;66299;47.514;19.218;2023-12-29T08:53:44;2.03;99.99
68189;DHT22;66299;47.514;19.218;2023-12-29T08:56:13;2.09;99.99
68189;DHT22;66299;47.514;19.218;2023-12-29T08:58:43;2.15;99.99
68189;DHT22;66299;47.514;19.218;2023-12-29T09:01:11;2.08;99.99
68189;DHT22;66299;47.514;19.218;2023-12-29T09:03:40;2.13;99.99
68189;DHT22;66299;47.514;19.218;2023-12-29T09:06:09;2.25;99.99
68189;DHT22;66299;47.514;19.218;2023-12-29T09:08:39;2.15;99.99
68189;DHT22;66299;47.514;19.218;2023-12-29T09:11:08;2.39;99.99
68189;DHT22;66299;47.514;19.218;2023-12-29T09:13:39;2.51;99.99
68189;DHT22;66299;47.514;19.218;2023-12-29T09:16:08;2.61;99.99
68189;DHT22;66299;47.514;19.218;2023-12-29T09:18:37;2.50;99.99
68189;DHT22;66299;47.514;19.218;2023-12-29T09:21:05;2.77;99.99
68189;DHT22;66299;47.514;19.218;2023-12-29T09:23:35;2.81;99.99
68189;DHT22;66299;47.514;19.218;2023-12-29T09:26:05;2.88;99.99
68189;DHT22;66299;47.514;19.218;2023-12-29T09:28:36;3.02;99.99
68189;DHT22;66299;47.514;19.218;2023-12-29T09:31:06;2.91;99.99
68189;DHT22;66299;47.514;19.218;2023-12-29T09:33:35;2.99;99.99
68189;DHT22;66299;47.514;19.218;2023-12-29T09:36:05;3.04;99.99
68189;DHT22;66299;47.514;19.218;2023-12-29T09:38:34;3.23;99.99
68189;DHT22;66299;47.514;19.218;2023-12-29T09:41:04;3.27;99.99
68189;DHT22;66299;47.514;19.218;2023-12-29T09:43:40;3.36;99.99
68189;DHT22;66299;47.514;19.218;2023-12-29T09:46:10;3.29;99.99
68189;DHT22;66299;47.514;19.218;2023-12-29T09:48:42;3.27;99.99
68189;DHT22;66299;47.514;19.218;2023-12-29T09:51:15;3.29;99.99
68189;DHT22;66299;47.514;19.218;2023-12-29T09:53:43;3.49;99.99
68189;DHT22;66299;47.514;19.218;2023-12-29T09:56:13;3.67;99.99
68189;DHT22;66299;47.514;19.218;2023-12-29T09:58:46;3.70;99.99
68189;DHT22;66299;47.514;19.218;2023-12-29T10:01:17;3.62;99.99
68189;DHT22;66299;47.514;19.218;2023-12-29T10:03:47;3.63;99.99
68189;DHT22;66299;47.514;19.218;2023-12-29T10:06:20;3.77;99.99
68189;DHT22;66299;47.514;19.218;2023-12-29T10:08:52;3.78;99.99
68189;DHT22;66299;47.514;19.218;2023-12-29T10:11:22;3.94;99.99
68189;DHT22;66299;47.514;19.218;2023-12-29T10:13:54;4.06;99.99
68189;DHT22;66299;47.514;19.218;2023-12-29T10:16:28;4.15;99.99
68189;DHT22;66299;47.514;19.218;2023-12-29T10:19:08;4.05;99.99
68189;DHT22;66299;47.514;19.218;2023-12-29T10:21:46;4.01;99.99
68189;DHT22;66299;47.514;19.218;2023-12-29T10:24:19;4.12;99.99
68189;DHT22;66299;47.514;19.218;2023-12-29T10:26:49;4.23;99.99
68189;DHT22;66299;47.514;19.218;2023-12-29T10:29:22;4.36;99.99
68189;DHT22;66299;47.514;19.218;2023-12-29T10:31:50;4.49;99.99
68189;DHT22;66299;47.514;19.218;2023-12-29T10:34:20;4.84;99.99
68189;DHT22;66299;47.514;19.218;2023-12-29T10:36:57;5.14;99.99
68189;DHT22;66299;47.514;19.218;2023-12-29T10:39:26;5.07;99.99
68189;DHT22;66299;47.514;19.218;2023-12-29T10:42:03;5.19;99.79
68189;DHT22;66299;47.514;19.218;2023-12-29T10:44:35;5.45;99.81
68189;DHT22;66299;47.514;19.218;2023-12-29T10:47:08;5.48;99.66
68189;DHT22;66299;47.514;19.218;2023-12-29T10:49:39;5.90;97.88
68189;DHT22;66299;47.514;19.218;2023-12-29T10:52:12;6.14;98.35
68189;DHT22;66299;47.514;19.218;2023-12-29T10:54:40;6.04;98.57
68189;DHT22;66299;47.514;19.218;2023-12-29T10:57:11;6.13;98.23
68189;DHT22;66299;47.514;19.218;2023-12-29T10:59:42;6.66;96.23
68189;DHT22;66299;47.514;19.218;2023-12-29T11:02:12;7.17;94.25
68189;DHT22;66299;47.514;19.218;2023-12-29T11:04:43;7.15;93.71
68189;DHT22;66299;47.514;19.218;2023-12-29T11:07:12;7.20;94.95
68189;DHT22;66299;47.514;19.218;2023-12-29T11:09:43;7.15;94.47
68189;DHT22;66299;47.514;19.218;2023-12-29T11:12:12;6.96;94.04
68189;DHT22;66299;47.514;19.218;2023-12-29T11:14:43;7.23;93.64
68189;DHT22;66299;47.514;19.218;2023-12-29T11:17:15;7.38;92.70
68189;DHT22;66299;47.514;19.218;2023-12-29T11:19:45;7.27;92.70
68189;DHT22;66299;47.514;19.218;2023-12-29T11:22:17;7.34;92.13
68189;DHT22;66299;47.514;19.218;2023-12-29T11:24:46;7.17;93.01
68189;DHT22;66299;47.514;19.218;2023-12-29T11:27:17;7.71;91.80
68189;DHT22;66299;47.514;19.218;2023-12-29T11:29:48;7.72;90.71
68189;DHT22;66299;47.514;19.218;2023-12-29T11:32:20;7.79;91.25
68189;DHT22;66299;47.514;19.218;2023-12-29T11:34:54;7.51;91.92
68189;DHT22;66299;47.514;19.218;2023-12-29T11:37:31;7.55;91.74
68189;DHT22;66299;47.514;19.218;2023-12-29T11:40:11;7.62;91.91
68189;DHT22;66299;47.514;19.218;2023-12-29T11:42:45;7.59;91.92
68189;DHT22;66299;47.514;19.218;2023-12-29T11:45:29;8.03;90.82
68189;DHT22;66299;47.514;19.218;2023-12-29T11:47:58;8.33;88.76
68189;DHT22;66299;47.514;19.218;2023-12-29T11:50:32;8.30;88.93
68189;DHT22;66299;47.514;19.218;2023-12-29T11:53:00;8.37;88.94
68189;DHT22;66299;47.514;19.218;2023-12-29T11:55:33;8.34;88.69
68189;DHT22;66299;47.514;19.218;2023-12-29T11:58:02;8.40;88.19
68189;DHT22;66299;47.514;19.218;2023-12-29T12:00:44;8.38;88.35
68189;DHT22;66299;47.514;19.218;2023-12-29T12:03:15;8.10;89.45
68189;DHT22;66299;47.514;19.218;2023-12-29T12:05:44;7.96;90.63
68189;DHT22;66299;47.514;19.218;2023-12-29T12:08:29;8.06;90.04
68189;DHT22;66299;47.514;19.218;2023-12-29T12:11:43;8.34;88.48
68189;DHT22;66299;47.514;19.218;2023-12-29T12:14:46;7.96;89.83
68189;DHT22;66299;47.514;19.218;2023-12-29T12:17:30;8.07;89.94
68189;DHT22;66299;47.514;19.218;2023-12-29T12:20:02;8.30;89.01
68189;DHT22;66299;47.514;19.218;2023-12-29T12:22:32;7.99;90.27
68189;DHT22;66299;47.514;19.218;2023-12-29T12:25:05;8.07;89.49
68189;DHT22;66299;47.514;19.218;2023-12-29T12:27:37;7.93;90.33
68189;DHT22;66299;47.514;19.218;2023-12-29T12:30:08;8.23;89.30
68189;DHT22;66299;47.514;19.218;2023-12-29T12:32:40;8.30;88.42
68189;DHT22;66299;47.514;19.218;2023-12-29T12:35:17;8.47;87.87
68189;DHT22;66299;47.514;19.218;2023-12-29T12:37:47;8.40;88.31
68189;DHT22;66299;47.514;19.218;2023-12-29T12:40:25;8.40;88.55
68189;DHT22;66299;47.514;19.218;2023-12-29T12:42:55;8.48;87.67
68189;DHT22;66299;47.514;19.218;2023-12-29T12:45:26;8.45;88.13
68189;DHT22;66299;47.514;19.218;2023-12-29T12:48:02;8.71;87.48
68189;DHT22;66299;47.514;19.218;2023-12-29T12:50:32;8.64;87.73
68189;DHT22;66299;47.514;19.218;2023-12-29T12:53:02;8.51;88.40
68189;DHT22;66299;47.514;19.218;2023-12-29T12:55:37;8.52;88.22
68189;DHT22;66299;47.514;19.218;2023-12-29T12:58:06;8.72;87.56
68189;DHT22;66299;47.514;19.218;2023-12-29T13:00:35;8.51;88.20
68189;DHT22;66299;47.514;19.218;2023-12-29T13:03:05;8.47;88.77
68189;DHT22;66299;47.514;19.218;2023-12-29T13:05:35;8.41;88.76
68189;DHT22;66299;47.514;19.218;2023-12-29T13:08:06;8.41;88.81
68189;DHT22;66299;47.514;19.218;2023-12-29T13:10:40;8.52;87.60
68189;DHT22;66299;47.514;19.218;2023-12-29T13:13:09;8.40;88.04
68189;DHT22;66299;47.514;19.218;2023-12-29T13:15:46;8.44;88.43
68189;DHT22;66299;47.514;19.218;2023-12-29T13:18:16;8.61;88.04
68189;DHT22;66299;47.514;19.218;2023-12-29T13:20:46;8.59;88.30
68189;DHT22;66299;47.514;19.218;2023-12-29T13:23:15;8.44;88.26
68189;DHT22;66299;47.514;19.218;2023-12-29T13:25:46;8.37;88.56
68189;DHT22;66299;47.514;19.218;2023-12-29T13:28:15;8.47;88.02
68189;DHT22;66299;47.514;19.218;2023-12-29T13:30:44;8.50;88.00
68189;DHT22;66299;47.514;19.218;2023-12-29T13:33:19;8.33;88.38
68189;DHT22;66299;47.514;19.218;2023-12-29T13:35:54;8.31;88.72
68189;DHT22;66299;47.514;19.218;2023-12-29T13:38:38;8.34;88.36
68189;DHT22;66299;47.514;19.218;2023-12-29T13:41:12;8.30;88.27
68189;DHT22;66299;47.514;19.218;2023-12-29T13:43:42;8.34;88.32
68189;DHT22;66299;47.514;19.218;2023-12-29T13:46:12;8.34;88.06
68189;DHT22;66299;47.514;19.218;2023-12-29T13:48:46;8.24;88.94
68189;DHT22;66299;47.514;19.218;2023-12-29T13:51:23;8.24;88.83
68189;DHT22;66299;47.514;19.218;2023-12-29T13:53:58;8.20;89.49
68189;DHT22;66299;47.514;19.218;2023-12-29T13:56:28;8.26;88.57
68189;DHT22;66299;47.514;19.218;2023-12-29T13:58:56;8.19;89.19
68189;DHT22;66299;47.514;19.218;2023-12-29T14:01:35;8.24;88.92
68189;DHT22;66299;47.514;19.218;2023-12-29T14:04:07;8.06;89.23
68189;DHT22;66299;47.514;19.218;2023-12-29T14:06:41;8.21;88.63
68189;DHT22;66299;47.514;19.218;2023-12-29T14:09:14;8.19;89.01
68189;DHT22;66299;47.514;19.218;2023-12-29T14:11:45;8.10;89.09
68189;DHT22;66299;47.514;19.218;2023-12-29T14:14:21;8.03;89.32
68189;DHT22;66299;47.514;19.218;2023-12-29T14:16:50;8.17;88.90
68189;DHT22;66299;47.514;19.218;2023-12-29T14:19:22;8.16;89.30
68189;DHT22;66299;47.514;19.218;2023-12-29T14:21:54;8.03;89.80
68189;DHT22;66299;47.514;19.218;2023-12-29T14:24:23;7.94;89.72
68189;DHT22;66299;47.514;19.218;2023-12-29T14:26:56;8.02;89.43
68189;DHT22;66299;47.514;19.218;2023-12-29T14:29:27;7.83;90.03
68189;DHT22;66299;47.514;19.218;2023-12-29T14:31:57;7.83;90.03
68189;DHT22;66299;47.514;19.218;2023-12-29T14:34:29;7.85;90.02
68189;DHT22;66299;47.514;19.218;2023-12-29T14:36:57;7.76;90.49
68189;DHT22;66299;47.514;19.218;2023-12-29T14:39:25;7.65;91.05
68189;DHT22;66299;47.514;19.218;2023-12-29T14:41:54;7.61;91.31
68189;DHT22;66299;47.514;19.218;2023-12-29T14:44:23;7.66;91.35
68189;DHT22;66299;47.514;19.218;2023-12-29T14:46:52;7.52;91.72
68189;DHT22;66299;47.514;19.218;2023-12-29T14:49:21;7.48;92.28
68189;DHT22;66299;47.514;19.218;2023-12-29T14:51:52;7.51;92.17
68189;DHT22;66299;47.514;19.218;2023-12-29T14:54:24;7.40;92.18
68189;DHT22;66299;47.514;19.218;2023-12-29T14:56:52;7.34;92.85
68189;DHT22;66299;47.514;19.218;2023-12-29T14:59:35;7.25;93.35
68189;DHT22;66299;47.514;19.218;2023-12-29T15:02:04;7.25;93.05
68189;DHT22;66299;47.514;19.218;2023-12-29T15:04:36;7.10;93.66
68189;DHT22;66299;47.514;19.218;2023-12-29T15:07:06;7.00;93.69
68189;DHT22;66299;47.514;19.218;2023-12-29T15:09:36;6.75;94.69
68189;DHT22;66299;47.514;19.218;2023-12-29T15:12:06;6.53;95.41
68189;DHT22;66299;47.514;19.218;2023-12-29T15:14:36;6.50;95.78
68189;DHT22;66299;47.514;19.218;2023-12-29T15:17:06;6.46;95.71
68189;DHT22;66299;47.514;19.218;2023-12-29T15:19:36;6.49;96.13
68189;DHT22;66299;47.514;19.218;2023-12-29T15:22:06;6.50;96.07
68189;DHT22;66299;47.514;19.218;2023-12-29T15:24:36;6.50;95.92
68189;DHT22;66299;47.514;19.218;2023-12-29T15:27:04;6.39;96.34
68189;DHT22;66299;47.514;19.218;2023-12-29T15:29:33;6.35;96.52
68189;DHT22;66299;47.514;19.218;2023-12-29T15:32:02;6.20;96.68
68189;DHT22;66299;47.514;19.218;2023-12-29T15:34:31;6.17;96.48
68189;DHT22;66299;47.514;19.218;2023-12-29T15:36:59;6.11;96.96
68189;DHT22;66299;47.514;19.218;2023-12-29T15:39:31;6.14;96.86
68189;DHT22;66299;47.514;19.218;2023-12-29T15:42:00;6.14;96.92
68189;DHT22;66299;47.514;19.218;2023-12-29T15:44:29;6.04;96.62
68189;DHT22;66299;47.514;19.218;2023-12-29T15:46:58;5.80;97.37
68189;DHT22;66299;47.514;19.218;2023-12-29T15:49:27;5.80;97.81